Time;durP1;ratioP1;P1;durP2;ratioP2;P2;SDS_P1;SDS_P2;PMS_P1;PMS_P2;Temp;Humidity;BMP_temperature;BMP_pressure;BME280_temperature;BME280_humidity;BME280_pressure;Samples;Min_cycle;Max_cycle;Signal;HPM_P1;HPM_P2
2022/12/05 00:01:52;;;;;;;17.30;11.37;;;1.90;99.90;;;;;;5035731;28;20205;-81
2022/12/05 00:04:18;;;;;;;17.77;11.50;;;1.90;99.90;;;;;;5018195;28;20181;-81
2022/12/05 00:06:44;;;;;;;19.27;11.87;;;1.90;99.90;;;;;;5017888;28;20181;-81
2022/12/05 00:09:11;;;;;;;16.97;10.97;;;1.90;99.90;;;;;;5018097;28;20184;-81
2022/12/05 00:11:40;;;;;;;18.67;11.17;;;1.90;99.90;;;;;;5035838;28;20206;-81
2022/12/05 00:14:08;;;;;;;17.70;11.47;;;1.90;99.90;;;;;;5035655;28;20213;-81
2022/12/05 00:16:37;;;;;;;17.73;10.53;;;1.90;99.90;;;;;;5035578;28;20185;-82
2022/12/05 00:19:04;;;;;;;19.23;10.90;;;1.90;99.90;;;;;;5034272;28;20196;-81
2022/12/05 00:21:33;;;;;;;15.07;10.57;;;1.90;99.90;;;;;;5035615;28;20200;-81
2022/12/05 00:23:59;;;;;;;17.17;10.97;;;2.00;99.90;;;;;;5035522;28;20228;-81
2022/12/05 00:26:26;;;;;;;15.57;10.10;;;1.90;99.90;;;;;;5034445;28;20183;-81
2022/12/05 00:28:52;;;;;;;16.93;10.33;;;1.90;99.90;;;;;;5017870;28;20179;-81
2022/12/05 00:31:20;;;;;;;16.63;10.30;;;1.90;99.90;;;;;;5035272;28;20670;-81
2022/12/05 00:33:47;;;;;;;15.90;9.73;;;1.90;99.90;;;;;;5034020;28;20259;-81
2022/12/05 00:36:19;;;;;;;16.90;10.63;;;1.90;99.90;;;;;;5017812;28;20184;-81
2022/12/05 00:38:44;;;;;;;15.57;10.50;;;1.90;99.90;;;;;;5035263;28;20177;-81
2022/12/05 00:41:13;;;;;;;18.47;11.20;;;1.90;99.90;;;;;;5035037;28;20736;-81
2022/12/05 00:43:40;;;;;;;16.23;10.13;;;2.00;99.90;;;;;;5033972;28;20183;-82
2022/12/05 00:46:08;;;;;;;16.77;10.53;;;2.00;99.90;;;;;;5033954;28;20201;-81
2022/12/05 00:48:33;;;;;;;14.53;9.93;;;1.90;99.90;;;;;;5034155;28;20272;-81
2022/12/05 00:51:01;;;;;;;17.13;9.30;;;1.90;99.90;;;;;;5046661;22;20254;-83
2022/12/05 00:53:26;;;;;;;16.67;10.67;;;1.90;99.90;;;;;;5038932;28;20175;-83
2022/12/05 00:55:52;;;;;;;17.67;10.47;;;1.90;99.90;;;;;;5039285;28;20335;-83
2022/12/05 00:58:17;;;;;;;17.87;9.97;;;1.90;99.90;;;;;;5039214;28;20638;-82
2022/12/05 01:00:43;;;;;;;15.87;9.97;;;1.90;99.90;;;;;;5039412;28;20609;-83
2022/12/05 01:03:08;;;;;;;17.37;10.17;;;1.90;99.90;;;;;;5038230;28;20172;-82
2022/12/05 01:05:34;;;;;;;14.90;10.70;;;1.90;99.90;;;;;;5039215;28;20222;-83
2022/12/05 01:08:00;;;;;;;15.70;10.17;;;1.90;99.90;;;;;;5039030;28;20188;-82
2022/12/05 01:10:25;;;;;;;14.87;10.10;;;1.90;99.90;;;;;;5039075;28;20175;-83
2022/12/05 01:12:51;;;;;;;16.37;10.07;;;1.90;99.90;;;;;;5038846;28;20177;-83
2022/12/05 01:15:16;;;;;;;17.17;10.40;;;1.90;99.90;;;;;;5039064;28;20201;-82
2022/12/05 01:17:42;;;;;;;17.80;10.40;;;2.00;99.90;;;;;;5056870;28;20244;-82
2022/12/05 01:20:08;;;;;;;14.97;9.70;;;1.90;99.90;;;;;;5039441;28;20248;-82
2022/12/05 01:22:33;;;;;;;16.03;9.80;;;1.90;99.90;;;;;;5056710;28;20188;-82
2022/12/05 01:24:59;;;;;;;15.20;10.60;;;1.90;99.90;;;;;;5039310;28;20176;-82
2022/12/05 01:27:24;;;;;;;17.87;10.93;;;1.90;99.90;;;;;;5039412;28;20171;-83
2022/12/05 01:29:50;;;;;;;16.10;10.00;;;1.80;99.90;;;;;;5039203;28;20185;-83
2022/12/05 01:32:15;;;;;;;16.77;10.10;;;1.90;99.90;;;;;;5056750;28;20200;-83
2022/12/05 01:34:41;;;;;;;14.70;9.80;;;1.90;99.90;;;;;;5038588;28;20171;-83
2022/12/05 01:37:07;;;;;;;13.80;9.47;;;1.90;99.90;;;;;;5038731;28;20216;-83
2022/12/05 01:39:32;;;;;;;15.13;9.93;;;1.90;99.90;;;;;;5038938;28;20248;-83
2022/12/05 01:41:58;;;;;;;16.97;10.07;;;1.80;99.90;;;;;;5038852;28;20191;-83
2022/12/05 01:44:23;;;;;;;17.37;9.80;;;1.80;99.90;;;;;;5038384;28;20164;-83
2022/12/05 01:46:51;;;;;;;17.47;10.17;;;1.80;99.90;;;;;;5038577;28;20174;-82
2022/12/05 01:49:21;;;;;;;14.87;9.30;;;1.80;99.90;;;;;;5038639;28;20669;-82
2022/12/05 01:52:00;;;;;;;14.50;9.50;;;1.80;99.90;;;;;;5037996;28;20224;-83
2022/12/05 01:54:26;;;;;;;17.37;10.10;;;1.80;99.90;;;;;;5055779;28;20269;-83
2022/12/05 01:57:02;;;;;;;15.40;9.70;;;1.90;99.90;;;;;;5037729;28;20203;-83
2022/12/05 01:59:31;;;;;;;15.33;9.57;;;1.90;99.90;;;;;;5037566;28;20233;-82
2022/12/05 02:01:57;;;;;;;15.70;9.70;;;1.90;99.90;;;;;;5037442;28;20221;-82
2022/12/05 02:04:23;;;;;;;18.37;10.67;;;1.90;99.90;;;;;;5037475;28;20219;-82
2022/12/05 02:06:49;;;;;;;17.03;10.33;;;2.00;99.90;;;;;;5036716;28;20170;-83
2022/12/05 02:09:14;;;;;;;16.37;9.90;;;2.00;99.90;;;;;;5037125;28;20254;-82
2022/12/05 02:11:53;;;;;;;15.97;10.43;;;2.00;99.90;;;;;;5037177;28;20195;-83
2022/12/05 02:14:18;;;;;;;16.17;9.90;;;2.00;99.90;;;;;;5054554;28;20227;-83
2022/12/05 02:16:52;;;;;;;13.90;9.77;;;2.00;99.90;;;;;;5054982;28;20180;-83
2022/12/05 02:19:20;;;;;;;16.30;10.17;;;2.00;99.90;;;;;;5037070;28;20198;-83
2022/12/05 02:22:10;;;;;;;15.27;9.23;;;2.00;99.90;;;;;;5037167;28;20191;-82
2022/12/05 02:24:38;;;;;;;15.90;10.00;;;2.00;99.90;;;;;;5036901;28;20178;-83
2022/12/05 02:27:16;;;;;;;15.63;9.63;;;2.00;99.90;;;;;;5037427;28;20175;-83
2022/12/05 02:29:48;;;;;;;15.43;9.80;;;2.00;99.90;;;;;;5054622;28;20180;-82
2022/12/05 02:32:39;;;;;;;16.87;10.37;;;2.00;99.90;;;;;;5036654;28;20226;-79
2022/12/05 02:35:07;;;;;;;15.23;10.20;;;2.00;99.90;;;;;;5037227;28;20174;-83
2022/12/05 02:37:49;;;;;;;15.40;10.20;;;2.00;99.90;;;;;;5054696;28;20615;-82
2022/12/05 02:40:44;;;;;;;15.70;10.40;;;2.00;99.90;;;;;;5037375;28;20208;-82
2022/12/05 02:43:21;;;;;;;14.70;9.93;;;1.90;99.90;;;;;;5017580;28;20196;-82
2022/12/05 02:45:54;;;;;;;18.23;10.27;;;1.90;99.90;;;;;;5037688;28;20187;-82
2022/12/05 02:48:21;;;;;;;16.57;10.30;;;1.90;99.90;;;;;;5037502;28;20218;-83
2022/12/05 02:50:49;;;;;;;16.90;10.33;;;1.90;99.90;;;;;;4997000;28;1140373;-82
2022/12/05 02:53:18;;;;;;;15.03;9.57;;;1.90;99.90;;;;;;5037587;28;20170;-82
2022/12/05 02:55:45;;;;;;;17.20;10.30;;;2.00;99.90;;;;;;5037496;28;20201;-82
2022/12/05 02:58:16;;;;;;;16.00;9.93;;;2.00;99.90;;;;;;5055560;28;20225;-82
2022/12/05 03:00:46;;;;;;;14.60;9.53;;;2.00;99.90;;;;;;5055307;28;20207;-83
2022/12/05 03:03:17;;;;;;;15.53;9.17;;;2.00;99.90;;;;;;5037753;28;20176;-82
2022/12/05 03:06:05;;;;;;;15.17;9.53;;;2.00;99.90;;;;;;5055821;28;20191;-82
2022/12/05 03:08:38;;;;;;;15.00;9.03;;;1.90;99.90;;;;;;5037754;28;20186;-83
2022/12/05 03:11:05;;;;;;;15.67;9.37;;;1.90;99.90;;;;;;5037464;28;20197;-82
2022/12/05 03:13:46;;;;;;;15.63;9.73;;;1.90;99.90;;;;;;5037787;28;20530;-82
2022/12/05 03:16:19;;;;;;;15.87;9.73;;;1.90;99.90;;;;;;5055180;28;20190;-82
2022/12/05 03:18:50;;;;;;;16.27;9.43;;;1.90;99.90;;;;;;5055721;28;20258;-82
2022/12/05 03:21:27;;;;;;;15.10;9.83;;;1.90;99.90;;;;;;5037379;28;20312;-83
2022/12/05 03:24:06;;;;;;;14.93;9.27;;;2.00;99.90;;;;;;5037156;28;20170;-83
2022/12/05 03:26:41;;;;;;;15.27;9.60;;;1.90;99.90;;;;;;5039403;28;20175;-82
2022/12/05 03:29:30;;;;;;;13.60;8.70;;;1.90;99.90;;;;;;5059721;28;20167;-82
2022/12/05 03:32:07;;;;;;;16.87;9.73;;;1.90;99.90;;;;;;5041926;28;20190;-82
2022/12/05 03:34:55;;;;;;;15.87;9.73;;;1.90;99.90;;;;;;5059593;28;20714;-82
2022/12/05 03:37:34;;;;;;;15.30;9.87;;;1.90;99.90;;;;;;5058478;28;20178;-82
2022/12/05 03:40:13;;;;;;;14.53;8.97;;;1.90;99.90;;;;;;5041513;28;20234;-83
2022/12/05 03:42:46;;;;;;;14.57;8.97;;;1.90;99.90;;;;;;5041477;28;20247;-83
2022/12/05 03:45:16;;;;;;;13.97;9.17;;;1.90;99.90;;;;;;5059305;28;20250;-82
2022/12/05 03:48:09;;;;;;;18.27;10.33;;;1.90;99.90;;;;;;5059390;28;20179;-82
2022/12/05 03:50:38;;;;;;;13.90;9.60;;;1.90;99.90;;;;;;5041295;28;20171;-82
2022/12/05 03:53:08;;;;;;;13.73;8.63;;;1.80;99.90;;;;;;5041050;28;20178;-83
2022/12/05 03:55:37;;;;;;;14.60;9.63;;;1.90;99.90;;;;;;5059047;28;20222;-82
2022/12/05 03:58:27;;;;;;;16.97;9.50;;;1.80;99.90;;;;;;5058781;28;20168;-83
2022/12/05 04:00:56;;;;;;;14.13;9.10;;;1.80;99.90;;;;;;5041126;28;20230;-82
2022/12/05 04:03:37;;;;;;;15.47;9.63;;;1.80;99.90;;;;;;5040649;28;20175;-82
2022/12/05 04:06:28;;;;;;;15.50;9.47;;;1.90;99.90;;;;;;5041152;28;20317;-82
2022/12/05 04:08:58;;;;;;;15.67;9.30;;;1.90;99.90;;;;;;5050305;28;20633;-82
2022/12/05 04:11:29;;;;;;;16.30;9.63;;;1.90;99.90;;;;;;5058679;28;20222;-83
2022/12/05 04:14:10;;;;;;;15.60;9.53;;;1.90;99.90;;;;;;5040619;28;20198;-82
2022/12/05 04:17:03;;;;;;;15.20;10.17;;;1.80;99.90;;;;;;5058726;28;20172;-82
2022/12/05 04:22:20;;;;;;;16.43;10.53;;;1.80;99.90;;;;;;5058372;28;20226;-83
2022/12/05 04:27:43;;;;;;;16.53;10.00;;;1.80;99.90;;;;;;5058000;28;20158;-82
2022/12/05 04:30:18;;;;;;;15.90;9.50;;;1.80;99.90;;;;;;5040344;28;20178;-83
2022/12/05 04:32:46;;;;;;;16.13;9.93;;;1.80;99.90;;;;;;5057921;28;20189;-82
2022/12/05 04:35:43;;;;;;;16.50;10.07;;;1.70;99.90;;;;;;5040609;28;20179;-82
2022/12/05 04:38:23;;;;;;;15.57;9.70;;;1.70;99.90;;;;;;5040660;28;20243;-82
2022/12/05 04:40:57;;;;;;;14.43;9.50;;;1.70;99.90;;;;;;5040569;28;20207;-83
2022/12/05 04:43:24;;;;;;;14.20;9.17;;;1.70;99.90;;;;;;5040482;28;20198;-82
2022/12/05 04:45:52;;;;;;;14.23;9.33;;;1.80;99.90;;;;;;5040314;28;20178;-82
2022/12/05 04:48:21;;;;;;;16.70;10.00;;;1.80;99.90;;;;;;5040195;28;20229;-82
2022/12/05 04:50:48;;;;;;;15.27;9.93;;;1.70;99.90;;;;;;5039990;28;20287;-82
2022/12/05 04:53:15;;;;;;;15.83;9.73;;;1.70;99.90;;;;;;5057611;28;20278;-82
2022/12/05 04:55:45;;;;;;;17.33;9.93;;;1.70;99.90;;;;;;5058170;28;20174;-82
2022/12/05 04:58:21;;;;;;;13.80;9.30;;;1.70;99.90;;;;;;5040097;28;20646;-83
2022/12/05 05:00:58;;;;;;;15.27;9.10;;;1.70;99.90;;;;;;5058071;28;20207;-82
2022/12/05 05:03:35;;;;;;;15.27;9.60;;;1.70;99.90;;;;;;5057281;28;20174;-82
2022/12/05 05:06:01;;;;;;;13.73;9.17;;;1.70;99.90;;;;;;5057690;28;20175;-82
2022/12/05 05:08:28;;;;;;;15.50;9.27;;;1.70;99.90;;;;;;5057486;28;20182;-82
2022/12/05 05:11:05;;;;;;;15.87;9.50;;;1.70;99.90;;;;;;5039953;28;20258;-82
2022/12/05 05:13:30;;;;;;;16.07;9.80;;;1.70;99.90;;;;;;5040232;28;20175;-82
2022/12/05 05:15:56;;;;;;;15.10;8.90;;;1.70;99.90;;;;;;5057605;28;20580;-82
2022/12/05 05:18:21;;;;;;;12.30;7.90;;;1.80;99.90;;;;;;5057257;28;20334;-82
2022/12/05 05:20:47;;;;;;;16.67;9.60;;;1.80;99.90;;;;;;5057278;28;20208;-82
2022/12/05 05:23:13;;;;;;;12.20;8.30;;;1.80;99.90;;;;;;5039002;28;20193;-82
2022/12/05 05:25:39;;;;;;;13.60;8.70;;;1.80;99.90;;;;;;5039449;28;20172;-82
2022/12/05 05:28:04;;;;;;;12.97;8.87;;;1.80;99.90;;;;;;5039486;28;20266;-82
2022/12/05 05:30:30;;;;;;;13.57;8.83;;;1.80;99.90;;;;;;5057189;28;20175;-82
2022/12/05 05:32:57;;;;;;;16.17;9.57;;;1.70;99.90;;;;;;5039695;28;20171;-82
2022/12/05 05:35:23;;;;;;;14.53;9.03;;;1.70;99.90;;;;;;5056948;28;20183;-82
2022/12/05 05:37:48;;;;;;;14.53;8.80;;;1.70;99.90;;;;;;5056641;28;20182;-82
2022/12/05 05:40:14;;;;;;;13.43;9.30;;;1.70;99.90;;;;;;5039065;28;20221;-82
2022/12/05 05:42:48;;;;;;;15.47;9.03;;;1.70;99.90;;;;;;5038903;28;20204;-82
2022/12/05 05:45:15;;;;;;;15.77;8.70;;;1.70;99.90;;;;;;5039270;28;20174;-82
2022/12/05 05:47:41;;;;;;;15.47;9.40;;;1.70;99.90;;;;;;5039100;28;20237;-82
2022/12/05 05:50:07;;;;;;;15.33;8.90;;;1.70;99.90;;;;;;5038526;28;20177;-82
2022/12/05 05:52:35;;;;;;;15.03;8.83;;;1.70;99.90;;;;;;5056236;28;20304;-82
2022/12/05 05:55:01;;;;;;;14.33;8.97;;;1.70;99.90;;;;;;5056938;28;20185;-82
2022/12/05 05:57:27;;;;;;;15.47;8.57;;;1.80;99.90;;;;;;5039353;28;20665;-82
2022/12/05 05:59:52;;;;;;;13.90;7.77;;;1.80;99.90;;;;;;5039330;28;20290;-82
2022/12/05 06:02:18;;;;;;;14.23;8.63;;;1.80;99.90;;;;;;5038530;28;20228;-81
2022/12/05 06:04:43;;;;;;;14.27;8.43;;;1.80;99.90;;;;;;5038129;28;20179;-81
2022/12/05 06:07:09;;;;;;;12.80;7.77;;;1.80;99.90;;;;;;5036669;28;20662;-82
2022/12/05 06:09:34;;;;;;;10.37;7.00;;;1.90;99.90;;;;;;5040344;28;20186;-82
2022/12/05 06:12:00;;;;;;;10.93;7.33;;;1.90;99.90;;;;;;5035176;28;20206;-82
2022/12/05 06:14:26;;;;;;;12.87;8.20;;;2.80;99.90;;;;;;5052888;28;20213;-82
2022/12/05 06:16:51;;;;;;;10.60;7.60;;;3.60;99.90;;;;;;5052732;28;20176;-80
2022/12/05 06:19:17;;;;;;;8.43;6.40;;;4.20;99.90;;;;;;5053461;28;20209;-80
2022/12/05 06:21:42;;;;;;;8.87;6.60;;;4.60;99.90;;;;;;5035063;28;20200;-82
2022/12/05 06:24:08;;;;;;;9.07;6.30;;;4.80;99.90;;;;;;5052628;28;20174;-83
2022/12/05 06:26:34;;;;;;;8.80;6.23;;;4.70;99.90;;;;;;5052944;28;20177;-84
2022/12/05 06:28:59;;;;;;;10.33;6.73;;;4.30;99.90;;;;;;5037602;28;20177;-80
2022/12/05 06:31:30;;;;;;;10.70;7.07;;;3.90;99.90;;;;;;5039455;28;20198;-79
2022/12/05 06:34:00;;;;;;;8.73;6.50;;;3.40;99.90;;;;;;5040041;28;20184;-79
2022/12/05 06:36:27;;;;;;;9.63;6.23;;;3.10;99.90;;;;;;5057808;28;20184;-81
2022/12/05 06:38:52;;;;;;;11.23;7.33;;;2.90;99.90;;;;;;5038987;28;20178;-79
2022/12/05 06:41:19;;;;;;;10.70;7.20;;;2.80;99.90;;;;;;5037695;28;20223;-80
2022/12/05 06:43:45;;;;;;;9.80;7.03;;;2.60;99.90;;;;;;5037240;28;20177;-80
2022/12/05 06:46:13;;;;;;;11.10;7.40;;;2.50;99.90;;;;;;5039158;28;20175;-81
2022/12/05 06:48:38;;;;;;;10.17;7.47;;;2.40;99.90;;;;;;5055917;28;20173;-81
2022/12/05 06:51:07;;;;;;;11.37;7.63;;;2.40;99.90;;;;;;5097983;22;20293;-80
2022/12/05 06:53:32;;;;;;;11.73;8.33;;;2.40;99.90;;;;;;5030121;28;20194;-82
2022/12/05 06:56:01;;;;;;;15.93;11.27;;;2.30;99.90;;;;;;5031452;28;20551;-84
2022/12/05 06:58:27;;;;;;;21.87;14.33;;;2.40;99.90;;;;;;5031380;28;20652;-84
2022/12/05 07:03:38;;;;;;;18.10;10.93;;;2.30;99.90;;;;;;5032699;28;20180;-86
2022/12/05 07:06:06;;;;;;;15.17;8.17;;;2.30;99.90;;;;;;5031269;28;20173;-86
2022/12/05 07:08:32;;;;;;;11.73;7.77;;;2.30;99.90;;;;;;5032100;28;20256;-85
2022/12/05 07:10:58;;;;;;;11.30;7.60;;;2.30;99.90;;;;;;5032260;28;20278;-85
2022/12/05 07:13:23;;;;;;;14.10;9.63;;;2.30;99.90;;;;;;5031028;28;20652;-86
2022/12/05 07:15:51;;;;;;;12.77;8.80;;;2.30;99.90;;;;;;5032368;28;20177;-87
2022/12/05 07:18:17;;;;;;;13.10;8.07;;;2.40;99.90;;;;;;5032135;28;20187;-83
2022/12/05 07:20:44;;;;;;;11.90;7.70;;;2.30;99.90;;;;;;5031115;28;20740;-84
2022/12/05 07:23:10;;;;;;;12.03;7.77;;;2.30;99.90;;;;;;5031656;28;20189;-84
2022/12/05 07:25:40;;;;;;;12.03;7.93;;;2.30;99.90;;;;;;5030967;28;20169;-84
2022/12/05 07:28:06;;;;;;;12.47;7.37;;;2.30;99.90;;;;;;5032310;28;20180;-83
2022/12/05 07:30:31;;;;;;;11.77;8.13;;;2.40;99.90;;;;;;5035949;28;20181;-85
2022/12/05 07:32:57;;;;;;;15.40;8.77;;;2.40;99.90;;;;;;5051834;28;20193;-84
2022/12/05 07:35:22;;;;;;;23.40;14.27;;;2.40;99.90;;;;;;5050854;28;20175;-84
2022/12/05 07:37:48;;;;;;;17.17;10.80;;;2.40;99.90;;;;;;5050796;28;20200;-85
2022/12/05 07:40:14;;;;;;;12.63;8.60;;;2.40;99.90;;;;;;5050668;28;20212;-85
2022/12/05 07:42:39;;;;;;;10.50;7.63;;;2.40;99.90;;;;;;5050548;28;20196;-86
2022/12/05 07:45:06;;;;;;;12.07;8.30;;;2.40;99.90;;;;;;5050764;28;20177;-86
2022/12/05 07:47:31;;;;;;;13.90;8.13;;;2.40;99.90;;;;;;5050781;28;20555;-85
2022/12/05 07:49:57;;;;;;;11.13;7.73;;;2.40;99.90;;;;;;5052036;28;20200;-85
2022/12/05 07:52:22;;;;;;;11.47;8.27;;;2.40;99.90;;;;;;5050546;28;20221;-86
2022/12/05 07:54:48;;;;;;;10.57;7.73;;;2.40;99.90;;;;;;5050766;28;20230;-85
2022/12/05 07:57:13;;;;;;;12.10;7.63;;;2.40;99.90;;;;;;5050959;28;20258;-84
2022/12/05 07:59:39;;;;;;;13.77;9.77;;;2.40;99.90;;;;;;5052415;28;20285;-85
2022/12/05 08:02:04;;;;;;;13.07;8.37;;;2.50;99.90;;;;;;5051712;28;20197;-83
2022/12/05 08:04:30;;;;;;;11.47;8.10;;;2.40;99.90;;;;;;5050315;28;20176;-83
2022/12/05 08:06:55;;;;;;;12.83;8.40;;;2.50;99.90;;;;;;5052023;28;20197;-83
2022/12/05 08:09:21;;;;;;;12.67;8.17;;;2.40;99.90;;;;;;5050316;28;20732;-84
2022/12/05 08:11:47;;;;;;;15.93;9.27;;;2.40;99.90;;;;;;5051150;28;20205;-84
2022/12/05 08:14:12;;;;;;;16.83;9.30;;;2.40;99.90;;;;;;5054189;28;20181;-84
2022/12/05 08:16:38;;;;;;;15.83;8.90;;;2.40;99.90;;;;;;5034258;28;20176;-84
2022/12/05 08:19:06;;;;;;;14.37;8.27;;;2.40;99.90;;;;;;5035081;28;20229;-84
2022/12/05 08:21:32;;;;;;;16.03;8.90;;;2.40;99.90;;;;;;5039114;28;20294;-84
2022/12/05 08:23:58;;;;;;;16.23;9.00;;;2.40;99.90;;;;;;5035677;28;20188;-84
2022/12/05 08:26:29;;;;;;;17.00;9.93;;;2.40;99.90;;;;;;5035835;28;20256;-84
2022/12/05 08:29:02;;;;;;;17.00;9.20;;;2.40;99.90;;;;;;5034281;28;20197;-84
2022/12/05 08:31:29;;;;;;;17.77;9.43;;;2.40;99.90;;;;;;5033706;28;20740;-84
2022/12/05 08:33:57;;;;;;;15.47;9.20;;;2.50;99.90;;;;;;5034900;28;20180;-83
2022/12/05 08:36:22;;;;;;;17.90;10.27;;;2.50;99.90;;;;;;5034459;28;20173;-83
2022/12/05 08:38:48;;;;;;;16.37;9.33;;;2.50;99.90;;;;;;5034044;28;20189;-84
2022/12/05 08:41:15;;;;;;;19.70;9.87;;;2.50;99.90;;;;;;5035114;28;20226;-84
2022/12/05 08:43:42;;;;;;;16.33;9.10;;;2.50;99.90;;;;;;5033693;28;20185;-85
2022/12/05 08:46:08;;;;;;;16.27;9.43;;;2.50;99.90;;;;;;5033613;28;20183;-84
2022/12/05 08:48:34;;;;;;;17.33;9.47;;;2.60;99.90;;;;;;5034908;28;20177;-86
2022/12/05 08:51:05;;;;;;;14.67;9.43;;;2.60;99.90;;;;;;5027534;28;20268;-86
2022/12/05 08:53:31;;;;;;;17.57;9.80;;;2.60;99.90;;;;;;5034461;28;20235;-86
2022/12/05 08:56:00;;;;;;;16.73;9.57;;;2.60;99.90;;;;;;5033315;28;20592;-86
2022/12/05 08:58:26;;;;;;;16.13;8.87;;;2.60;99.90;;;;;;5032956;28;20620;-86
2022/12/05 09:00:52;;;;;;;15.70;9.20;;;2.60;99.90;;;;;;5033208;28;20786;-87
2022/12/05 09:03:17;;;;;;;18.17;10.00;;;2.60;99.90;;;;;;5032856;28;20197;-86
2022/12/05 09:05:43;;;;;;;14.73;8.87;;;2.60;99.90;;;;;;5032861;28;20180;-86
2022/12/05 09:08:09;;;;;;;15.00;9.77;;;2.60;99.90;;;;;;5034347;28;20224;-85
2022/12/05 09:10:36;;;;;;;14.87;8.53;;;2.70;99.90;;;;;;5031990;28;20181;-86
2022/12/05 09:13:01;;;;;;;15.73;9.00;;;2.70;99.90;;;;;;5014340;28;20215;-86
2022/12/05 09:15:27;;;;;;;15.00;8.73;;;2.70;99.90;;;;;;5032335;28;20185;-82
2022/12/05 09:17:53;;;;;;;13.77;8.63;;;2.70;99.90;;;;;;5032267;28;20647;-85
2022/12/05 09:20:19;;;;;;;14.30;9.27;;;2.60;99.90;;;;;;5034443;28;20218;-85
2022/12/05 09:22:44;;;;;;;14.77;8.70;;;2.60;99.90;;;;;;5032468;28;20663;-84
2022/12/05 09:25:10;;;;;;;14.93;8.53;;;2.60;99.90;;;;;;5031369;28;20188;-87
2022/12/05 09:27:35;;;;;;;13.87;8.57;;;2.60;99.90;;;;;;5032889;28;20182;-83
2022/12/05 09:30:01;;;;;;;15.80;9.40;;;2.60;99.90;;;;;;5052515;28;20184;-83
2022/12/05 09:32:26;;;;;;;16.13;9.80;;;2.60;99.90;;;;;;5051756;28;20246;-87
2022/12/05 09:34:53;;;;;;;16.33;9.27;;;2.60;99.90;;;;;;5053920;28;20191;-86
2022/12/05 09:37:19;;;;;;;17.33;9.27;;;2.60;99.90;;;;;;5052798;28;20179;-84
2022/12/05 09:39:44;;;;;;;16.67;10.40;;;2.50;99.90;;;;;;5053678;28;20210;-86
2022/12/05 09:42:27;;;;;;;19.03;10.20;;;2.50;99.90;;;;;;5052382;28;20205;-85
2022/12/05 09:45:16;;;;;;;23.37;12.10;;;2.50;99.90;;;;;;5054076;28;20173;-87
2022/12/05 09:48:05;;;;;;;17.20;10.17;;;2.50;99.90;;;;;;5052235;28;20645;-86
2022/12/05 09:50:48;;;;;;;19.63;10.60;;;2.50;99.90;;;;;;5053682;28;20182;-88
2022/12/05 09:53:31;;;;;;;19.87;10.93;;;2.50;99.90;;;;;;5052313;28;20212;-86
2022/12/05 09:56:17;;;;;;;17.37;10.30;;;2.50;99.90;;;;;;5053611;28;20182;-85
2022/12/05 09:58:47;;;;;;;20.90;11.40;;;2.50;99.90;;;;;;5053897;28;20259;-87
2022/12/05 10:01:48;;;;;;;19.90;10.60;;;2.50;99.90;;;;;;5051894;28;20215;-86
2022/12/05 10:04:28;;;;;;;18.80;10.00;;;2.60;99.90;;;;;;5052103;28;20177;-85
2022/12/05 10:07:31;;;;;;;25.13;11.37;;;2.60;99.90;;;;;;5051862;28;20645;-85
2022/12/05 10:10:15;;;;;;;19.63;10.63;;;2.50;99.90;;;;;;5053454;28;20178;-86
2022/12/05 10:12:47;;;;;;;46.43;17.07;;;2.50;99.90;;;;;;5055686;28;20211;-84
2022/12/05 10:15:33;;;;;;;31.77;14.10;;;3.00;99.90;;;;;;5052993;28;20196;-85
2022/12/05 10:18:03;;;;;;;25.97;12.17;;;4.40;99.90;;;;;;5052981;28;20204;-85
2022/12/05 10:20:39;;;;;;;16.73;8.93;;;5.70;99.90;;;;;;5053061;28;20354;-86
2022/12/05 10:23:13;;;;;;;16.77;8.87;;;4.60;99.90;;;;;;5053045;28;20623;-86
2022/12/05 10:25:40;;;;;;;17.57;9.37;;;3.80;99.90;;;;;;5051557;28;20177;-85
2022/12/05 10:28:17;;;;;;;17.00;9.87;;;3.30;99.90;;;;;;5051983;28;20252;-85
2022/12/05 10:30:45;;;;;;;16.97;9.77;;;3.10;99.90;;;;;;5051697;28;20181;-85
2022/12/05 10:33:20;;;;;;;15.87;9.60;;;2.90;99.90;;;;;;5052348;28;20748;-87
2022/12/05 10:35:45;;;;;;;16.63;9.63;;;2.80;99.90;;;;;;5052686;28;20716;-86
2022/12/05 10:38:26;;;;;;;19.90;9.60;;;2.80;99.90;;;;;;5051461;28;20268;-86
2022/12/05 10:40:57;;;;;;;30.23;18.03;;;2.80;99.90;;;;;;5051490;28;20195;-85
2022/12/05 10:43:28;;;;;;;22.57;13.70;;;2.70;99.90;;;;;;5050862;28;20176;-85
2022/12/05 10:45:55;;;;;;;19.93;11.03;;;2.70;99.90;;;;;;5051587;28;20177;-85
2022/12/05 10:48:21;;;;;;;17.87;11.40;;;2.70;99.90;;;;;;5052588;28;20175;-86
2022/12/05 10:50:51;;;;;;;17.83;10.67;;;2.70;99.90;;;;;;5052183;28;20824;-86
2022/12/05 10:53:26;;;;;;;18.97;10.73;;;2.70;99.90;;;;;;5050717;28;20211;-85
2022/12/05 10:55:52;;;;;;;18.90;10.53;;;2.70;99.90;;;;;;5051016;28;20188;-86
2022/12/05 10:58:22;;;;;;;15.57;9.50;;;2.70;99.90;;;;;;5052064;28;20319;-87
2022/12/05 11:00:54;;;;;;;15.97;9.00;;;2.70;99.90;;;;;;5052168;28;20207;-82
2022/12/05 11:03:39;;;;;;;17.37;10.33;;;2.70;99.90;;;;;;5051422;28;20193;-85
2022/12/05 11:06:29;;;;;;;16.43;8.80;;;2.70;99.90;;;;;;5052302;28;20164;-87
2022/12/05 11:09:17;;;;;;;21.00;11.57;;;2.70;99.90;;;;;;5051958;28;20175;-86
2022/12/05 11:11:59;;;;;;;16.03;9.20;;;2.70;99.90;;;;;;5051244;28;20672;-88
2022/12/05 11:14:26;;;;;;;20.33;10.70;;;2.70;99.90;;;;;;5050890;28;20171;-86
2022/12/05 11:16:55;;;;;;;16.10;9.33;;;2.70;99.90;;;;;;5051703;28;20170;-86
2022/12/05 11:19:20;;;;;;;18.20;11.03;;;2.70;99.90;;;;;;5051936;28;20182;-86
2022/12/05 11:21:46;;;;;;;17.17;9.70;;;2.70;99.90;;;;;;5051768;28;20189;-86
2022/12/05 11:24:34;;;;;;;16.37;8.93;;;2.80;99.90;;;;;;5051851;28;20174;-87
2022/12/05 11:27:20;;;;;;;18.00;9.70;;;2.80;99.90;;;;;;5051847;28;20216;-85
2022/12/05 11:30:00;;;;;;;16.03;9.77;;;2.90;99.90;;;;;;5050702;28;20199;-87
2022/12/05 11:32:29;;;;;;;15.63;9.57;;;2.90;99.90;;;;;;5041992;28;20200;-85
2022/12/05 11:35:08;;;;;;;14.70;9.13;;;3.00;99.90;;;;;;5032502;28;20184;-81
2022/12/05 11:37:43;;;;;;;15.33;9.03;;;3.00;99.90;;;;;;5031724;28;20192;-83
2022/12/05 11:40:15;;;;;;;16.37;9.17;;;3.00;99.90;;;;;;5014478;28;20216;-86
2022/12/05 11:43:05;;;;;;;14.37;9.17;;;3.00;99.90;;;;;;5031474;28;20205;-87
2022/12/05 11:45:50;;;;;;;14.23;8.43;;;3.00;99.90;;;;;;5030306;28;20632;-86
2022/12/05 11:48:27;;;;;;;16.63;9.00;;;3.00;99.90;;;;;;5013814;28;20180;-86
2022/12/05 11:51:07;;;;;;;11.67;7.63;;;3.00;99.90;;;;;;5014736;28;20230;-87
2022/12/05 11:54:17;;;;;;;12.83;7.57;;;3.00;99.90;;;;;;5015658;28;20558;-85
2022/12/05 11:56:57;;;;;;;12.23;7.47;;;3.10;99.90;;;;;;4974427;28;20178;-83
2022/12/05 11:59:53;;;;;;;11.10;7.53;;;3.10;99.90;;;;;;4974572;28;20267;-84
2022/12/05 12:02:25;;;;;;;12.83;7.93;;;3.20;99.90;;;;;;5015622;28;20205;-83
2022/12/05 12:04:50;;;;;;;14.50;8.57;;;3.30;99.90;;;;;;5035988;28;20189;-83
2022/12/05 12:07:37;;;;;;;13.13;7.40;;;3.30;99.90;;;;;;5035201;28;20182;-84
2022/12/05 12:10:12;;;;;;;12.23;7.73;;;3.20;99.90;;;;;;5034162;28;20180;-84
2022/12/05 12:13:15;;;;;;;13.43;8.17;;;3.10;99.90;;;;;;5033813;28;20222;-82
2022/12/05 12:15:57;;;;;;;14.27;8.67;;;3.10;99.90;;;;;;5035427;28;20185;-85
2022/12/05 12:18:48;;;;;;;17.30;8.80;;;3.70;99.90;;;;;;5034504;28;20643;-84
2022/12/05 12:21:38;;;;;;;16.23;9.77;;;4.00;99.90;;;;;;5034135;28;20557;-85
2022/12/05 12:24:26;;;;;;;12.00;8.07;;;5.40;99.90;;;;;;5035062;28;20545;-85
2022/12/05 12:27:10;;;;;;;12.80;7.47;;;6.70;99.90;;;;;;5033993;28;20240;-85
2022/12/05 12:29:42;;;;;;;11.80;7.67;;;7.00;99.90;;;;;;5033948;28;20217;-85
2022/12/05 12:32:20;;;;;;;10.83;7.20;;;6.80;99.90;;;;;;5034060;28;20200;-86
2022/12/05 12:35:23;;;;;;;10.47;6.63;;;6.10;99.90;;;;;;5034147;28;20236;-85
2022/12/05 12:38:27;;;;;;;10.33;7.33;;;5.20;99.90;;;;;;5033768;28;20232;-85
2022/12/05 12:40:57;;;;;;;11.13;7.60;;;4.90;99.90;;;;;;5033900;28;20210;-86
2022/12/05 12:43:56;;;;;;;13.17;7.57;;;4.80;99.90;;;;;;5034563;28;20262;-86
2022/12/05 12:46:46;;;;;;;12.43;8.23;;;4.40;99.90;;;;;;5035021;28;20580;-86
2022/12/05 12:49:33;;;;;;;12.83;7.70;;;4.00;99.90;;;;;;5033652;28;20316;-86
2022/12/05 12:52:09;;;;;;;14.73;10.20;;;3.70;99.90;;;;;;5060405;22;20232;-84
2022/12/05 12:55:01;;;;;;;14.80;8.70;;;3.60;99.90;;;;;;5053911;28;20177;-84
2022/12/05 12:58:04;;;;;;;13.33;8.80;;;3.50;99.90;;;;;;5036367;28;20173;-84
2022/12/05 13:00:56;;;;;;;14.53;8.73;;;3.50;99.90;;;;;;5052680;28;20208;-84
2022/12/05 13:03:28;;;;;;;15.23;9.47;;;3.30;99.90;;;;;;5036227;28;20251;-84
2022/12/05 13:06:01;;;;;;;14.97;9.60;;;3.30;99.90;;;;;;5054030;28;20222;-84
2022/12/05 13:08:52;;;;;;;15.70;10.10;;;3.40;99.90;;;;;;5054104;28;20177;-84
2022/12/05 13:11:20;;;;;;;21.97;14.23;;;3.30;99.90;;;;;;5036343;28;20232;-84
2022/12/05 13:13:53;;;;;;;16.60;9.93;;;3.20;99.90;;;;;;5053864;28;20204;-84
2022/12/05 13:16:32;;;;;;;17.70;10.33;;;3.20;99.90;;;;;;5034401;28;20188;-84